sensor_id;sensor_type;location;lat;lon;timestamp;P1;durP1;ratioP1;P2;durP2;ratioP2
22628;SDS011;11481;53.694;9.910;2022-07-19T00:02:10;6.70;;;3.42;;
22628;SDS011;11481;53.694;9.910;2022-07-19T00:04:37;6.70;;;3.88;;
22628;SDS011;11481;53.694;9.910;2022-07-19T00:07:06;7.30;;;3.75;;
22628;SDS011;11481;53.694;9.910;2022-07-19T00:09:32;8.40;;;3.67;;
22628;SDS011;11481;53.694;9.910;2022-07-19T00:11:59;8.15;;;4.13;;
22628;SDS011;11481;53.694;9.910;2022-07-19T00:14:26;9.35;;;3.47;;
22628;SDS011;11481;53.694;9.910;2022-07-19T00:16:53;8.60;;;4.57;;
22628;SDS011;11481;53.694;9.910;2022-07-19T00:19:19;10.27;;;3.88;;
22628;SDS011;11481;53.694;9.910;2022-07-19T00:21:46;10.10;;;4.28;;
22628;SDS011;11481;53.694;9.910;2022-07-19T00:24:14;8.10;;;3.60;;
22628;SDS011;11481;53.694;9.910;2022-07-19T00:26:40;8.35;;;3.90;;
22628;SDS011;11481;53.694;9.910;2022-07-19T00:29:07;11.45;;;4.13;;
22628;SDS011;11481;53.694;9.910;2022-07-19T00:31:34;6.20;;;3.45;;
22628;SDS011;11481;53.694;9.910;2022-07-19T00:34:01;8.13;;;3.50;;
22628;SDS011;11481;53.694;9.910;2022-07-19T00:36:28;7.32;;;3.90;;
22628;SDS011;11481;53.694;9.910;2022-07-19T00:38:54;10.27;;;3.83;;
22628;SDS011;11481;53.694;9.910;2022-07-19T00:41:21;6.50;;;3.45;;
22628;SDS011;11481;53.694;9.910;2022-07-19T00:43:48;7.35;;;3.13;;
22628;SDS011;11481;53.694;9.910;2022-07-19T00:46:20;9.23;;;4.38;;
22628;SDS011;11481;53.694;9.910;2022-07-19T00:48:49;8.27;;;3.28;;
22628;SDS011;11481;53.694;9.910;2022-07-19T00:51:17;7.70;;;3.42;;
22628;SDS011;11481;53.694;9.910;2022-07-19T00:53:44;8.80;;;3.28;;
22628;SDS011;11481;53.694;9.910;2022-07-19T00:56:12;6.72;;;3.05;;
22628;SDS011;11481;53.694;9.910;2022-07-19T00:58:39;7.53;;;3.10;;
22628;SDS011;11481;53.694;9.910;2022-07-19T01:01:07;10.15;;;3.50;;
22628;SDS011;11481;53.694;9.910;2022-07-19T01:03:39;6.60;;;3.30;;
22628;SDS011;11481;53.694;9.910;2022-07-19T01:06:07;6.45;;;3.03;;
22628;SDS011;11481;53.694;9.910;2022-07-19T01:08:35;8.43;;;3.38;;
22628;SDS011;11481;53.694;9.910;2022-07-19T01:11:03;8.70;;;3.63;;
22628;SDS011;11481;53.694;9.910;2022-07-19T01:13:32;7.60;;;2.92;;
22628;SDS011;11481;53.694;9.910;2022-07-19T01:15:59;8.07;;;3.65;;
22628;SDS011;11481;53.694;9.910;2022-07-19T01:18:26;8.55;;;3.67;;
22628;SDS011;11481;53.694;9.910;2022-07-19T01:20:53;7.88;;;3.40;;
22628;SDS011;11481;53.694;9.910;2022-07-19T01:23:20;8.73;;;3.70;;
22628;SDS011;11481;53.694;9.910;2022-07-19T01:25:47;8.50;;;3.55;;
22628;SDS011;11481;53.694;9.910;2022-07-19T01:28:14;6.15;;;3.25;;
22628;SDS011;11481;53.694;9.910;2022-07-19T01:30:41;8.25;;;3.53;;
22628;SDS011;11481;53.694;9.910;2022-07-19T01:33:08;9.20;;;4.05;;
22628;SDS011;11481;53.694;9.910;2022-07-19T01:35:34;5.95;;;2.83;;
22628;SDS011;11481;53.694;9.910;2022-07-19T01:38:01;8.02;;;3.78;;
22628;SDS011;11481;53.694;9.910;2022-07-19T01:40:28;9.38;;;3.45;;
22628;SDS011;11481;53.694;9.910;2022-07-19T01:42:54;7.85;;;3.85;;
22628;SDS011;11481;53.694;9.910;2022-07-19T01:45:21;6.28;;;3.20;;
22628;SDS011;11481;53.694;9.910;2022-07-19T01:47:48;7.63;;;2.90;;
22628;SDS011;11481;53.694;9.910;2022-07-19T01:50:15;6.30;;;3.22;;
22628;SDS011;11481;53.694;9.910;2022-07-19T01:52:43;7.47;;;3.50;;
22628;SDS011;11481;53.694;9.910;2022-07-19T01:55:15;6.30;;;3.17;;
22628;SDS011;11481;53.694;9.910;2022-07-19T01:57:41;7.88;;;3.58;;
22628;SDS011;11481;53.694;9.910;2022-07-19T02:00:08;7.20;;;3.65;;
22628;SDS011;11481;53.694;9.910;2022-07-19T02:02:35;6.78;;;3.25;;
22628;SDS011;11481;53.694;9.910;2022-07-19T02:05:02;8.05;;;3.30;;
22628;SDS011;11481;53.694;9.910;2022-07-19T02:07:31;8.38;;;3.35;;
22628;SDS011;11481;53.694;9.910;2022-07-19T02:09:58;6.82;;;3.13;;
22628;SDS011;11481;53.694;9.910;2022-07-19T02:12:25;6.25;;;3.15;;
22628;SDS011;11481;53.694;9.910;2022-07-19T02:14:52;7.95;;;3.38;;
22628;SDS011;11481;53.694;9.910;2022-07-19T02:17:19;8.05;;;3.83;;
22628;SDS011;11481;53.694;9.910;2022-07-19T02:19:46;8.30;;;3.88;;
22628;SDS011;11481;53.694;9.910;2022-07-19T02:22:13;9.65;;;3.95;;
22628;SDS011;11481;53.694;9.910;2022-07-19T02:24:39;7.10;;;3.00;;
22628;SDS011;11481;53.694;9.910;2022-07-19T02:27:11;7.35;;;3.53;;
22628;SDS011;11481;53.694;9.910;2022-07-19T02:29:38;8.10;;;3.75;;
22628;SDS011;11481;53.694;9.910;2022-07-19T02:32:05;5.65;;;3.00;;
22628;SDS011;11481;53.694;9.910;2022-07-19T02:34:33;8.32;;;3.25;;
22628;SDS011;11481;53.694;9.910;2022-07-19T02:37:00;6.97;;;2.90;;
22628;SDS011;11481;53.694;9.910;2022-07-19T02:39:27;8.95;;;3.42;;
22628;SDS011;11481;53.694;9.910;2022-07-19T02:41:54;9.57;;;3.50;;
22628;SDS011;11481;53.694;9.910;2022-07-19T02:44:21;7.07;;;3.53;;
22628;SDS011;11481;53.694;9.910;2022-07-19T02:46:48;7.45;;;3.13;;
22628;SDS011;11481;53.694;9.910;2022-07-19T02:49:14;4.95;;;2.90;;
22628;SDS011;11481;53.694;9.910;2022-07-19T02:51:41;5.93;;;2.88;;
22628;SDS011;11481;53.694;9.910;2022-07-19T02:54:08;8.07;;;3.42;;
22628;SDS011;11481;53.694;9.910;2022-07-19T02:56:35;7.53;;;2.97;;
22628;SDS011;11481;53.694;9.910;2022-07-19T02:59:05;6.32;;;2.63;;
22628;SDS011;11481;53.694;9.910;2022-07-19T03:01:32;7.72;;;3.35;;
22628;SDS011;11481;53.694;9.910;2022-07-19T03:03:59;8.07;;;3.65;;
22628;SDS011;11481;53.694;9.910;2022-07-19T03:06:26;6.60;;;3.40;;
22628;SDS011;11481;53.694;9.910;2022-07-19T03:08:53;6.57;;;3.47;;
22628;SDS011;11481;53.694;9.910;2022-07-19T03:11:20;12.52;;;3.35;;
22628;SDS011;11481;53.694;9.910;2022-07-19T03:13:47;8.73;;;3.13;;
22628;SDS011;11481;53.694;9.910;2022-07-19T03:16:14;9.77;;;3.40;;
22628;SDS011;11481;53.694;9.910;2022-07-19T03:18:41;8.77;;;3.92;;
22628;SDS011;11481;53.694;9.910;2022-07-19T03:21:07;7.28;;;3.42;;
22628;SDS011;11481;53.694;9.910;2022-07-19T03:23:35;7.63;;;3.83;;
22628;SDS011;11481;53.694;9.910;2022-07-19T03:26:03;7.32;;;3.22;;
22628;SDS011;11481;53.694;9.910;2022-07-19T03:28:31;8.25;;;3.33;;
22628;SDS011;11481;53.694;9.910;2022-07-19T03:30:59;5.95;;;3.13;;
22628;SDS011;11481;53.694;9.910;2022-07-19T03:33:26;6.43;;;2.95;;
22628;SDS011;11481;53.694;9.910;2022-07-19T03:35:52;6.68;;;3.33;;
22628;SDS011;11481;53.694;9.910;2022-07-19T03:38:19;6.95;;;3.35;;
22628;SDS011;11481;53.694;9.910;2022-07-19T03:40:46;7.57;;;3.08;;
22628;SDS011;11481;53.694;9.910;2022-07-19T03:43:14;8.02;;;3.50;;
22628;SDS011;11481;53.694;9.910;2022-07-19T03:45:42;6.70;;;3.22;;
22628;SDS011;11481;53.694;9.910;2022-07-19T03:48:10;8.07;;;3.63;;
22628;SDS011;11481;53.694;9.910;2022-07-19T03:50:37;7.82;;;3.05;;
22628;SDS011;11481;53.694;9.910;2022-07-19T03:53:04;8.00;;;3.50;;
22628;SDS011;11481;53.694;9.910;2022-07-19T03:55:32;7.68;;;3.83;;
22628;SDS011;11481;53.694;9.910;2022-07-19T03:57:59;8.38;;;3.63;;
22628;SDS011;11481;53.694;9.910;2022-07-19T04:00:25;5.78;;;3.17;;
22628;SDS011;11481;53.694;9.910;2022-07-19T04:02:52;6.78;;;2.97;;
22628;SDS011;11481;53.694;9.910;2022-07-19T04:05:19;8.45;;;3.80;;
22628;SDS011;11481;53.694;9.910;2022-07-19T04:07:46;9.48;;;3.70;;
22628;SDS011;11481;53.694;9.910;2022-07-19T04:10:12;6.53;;;3.38;;
22628;SDS011;11481;53.694;9.910;2022-07-19T04:12:39;8.95;;;3.75;;
22628;SDS011;11481;53.694;9.910;2022-07-19T04:15:06;7.78;;;3.22;;
22628;SDS011;11481;53.694;9.910;2022-07-19T04:17:33;10.65;;;4.03;;
22628;SDS011;11481;53.694;9.910;2022-07-19T04:20:00;8.13;;;3.17;;
22628;SDS011;11481;53.694;9.910;2022-07-19T04:22:27;11.93;;;3.78;;
22628;SDS011;11481;53.694;9.910;2022-07-19T04:24:54;8.77;;;3.20;;
22628;SDS011;11481;53.694;9.910;2022-07-19T04:27:20;6.45;;;3.03;;
22628;SDS011;11481;53.694;9.910;2022-07-19T04:29:47;7.65;;;3.30;;
22628;SDS011;11481;53.694;9.910;2022-07-19T04:32:14;8.20;;;3.40;;
22628;SDS011;11481;53.694;9.910;2022-07-19T04:34:46;11.15;;;3.20;;
22628;SDS011;11481;53.694;9.910;2022-07-19T04:37:13;8.73;;;3.42;;
22628;SDS011;11481;53.694;9.910;2022-07-19T04:39:40;7.50;;;3.35;;
22628;SDS011;11481;53.694;9.910;2022-07-19T04:42:06;6.28;;;2.83;;
22628;SDS011;11481;53.694;9.910;2022-07-19T04:44:34;9.27;;;3.67;;
22628;SDS011;11481;53.694;9.910;2022-07-19T04:47:01;11.68;;;3.78;;
22628;SDS011;11481;53.694;9.910;2022-07-19T04:49:28;6.38;;;3.53;;
22628;SDS011;11481;53.694;9.910;2022-07-19T04:51:55;9.65;;;3.50;;
22628;SDS011;11481;53.694;9.910;2022-07-19T04:54:21;9.82;;;3.60;;
22628;SDS011;11481;53.694;9.910;2022-07-19T04:56:48;8.95;;;4.25;;
22628;SDS011;11481;53.694;9.910;2022-07-19T04:59:15;8.95;;;3.55;;
22628;SDS011;11481;53.694;9.910;2022-07-19T05:01:41;9.60;;;4.32;;
22628;SDS011;11481;53.694;9.910;2022-07-19T05:04:17;9.25;;;3.70;;
22628;SDS011;11481;53.694;9.910;2022-07-19T05:06:44;10.23;;;3.60;;
22628;SDS011;11481;53.694;9.910;2022-07-19T05:09:11;10.95;;;3.88;;
22628;SDS011;11481;53.694;9.910;2022-07-19T05:11:43;7.38;;;3.15;;
22628;SDS011;11481;53.694;9.910;2022-07-19T05:14:10;9.40;;;3.67;;
22628;SDS011;11481;53.694;9.910;2022-07-19T05:16:38;15.43;;;3.58;;
22628;SDS011;11481;53.694;9.910;2022-07-19T05:19:06;8.70;;;3.67;;
22628;SDS011;11481;53.694;9.910;2022-07-19T05:21:33;10.18;;;3.88;;
22628;SDS011;11481;53.694;9.910;2022-07-19T05:24:00;7.75;;;3.40;;
22628;SDS011;11481;53.694;9.910;2022-07-19T05:26:27;9.85;;;4.05;;
22628;SDS011;11481;53.694;9.910;2022-07-19T05:28:53;8.40;;;3.20;;
22628;SDS011;11481;53.694;9.910;2022-07-19T05:31:20;6.57;;;3.10;;
22628;SDS011;11481;53.694;9.910;2022-07-19T05:33:47;8.02;;;3.20;;
22628;SDS011;11481;53.694;9.910;2022-07-19T05:36:13;8.63;;;3.42;;
22628;SDS011;11481;53.694;9.910;2022-07-19T05:38:40;7.75;;;3.45;;
22628;SDS011;11481;53.694;9.910;2022-07-19T05:41:07;8.00;;;3.80;;
22628;SDS011;11481;53.694;9.910;2022-07-19T05:43:36;9.20;;;3.75;;
22628;SDS011;11481;53.694;9.910;2022-07-19T05:46:04;8.98;;;3.72;;
22628;SDS011;11481;53.694;9.910;2022-07-19T05:48:32;8.68;;;3.88;;
22628;SDS011;11481;53.694;9.910;2022-07-19T05:50:59;11.63;;;4.35;;
22628;SDS011;11481;53.694;9.910;2022-07-19T05:53:26;8.43;;;3.80;;
22628;SDS011;11481;53.694;9.910;2022-07-19T05:55:53;8.32;;;3.38;;
22628;SDS011;11481;53.694;9.910;2022-07-19T05:58:20;9.35;;;3.95;;
22628;SDS011;11481;53.694;9.910;2022-07-19T06:00:48;10.55;;;3.58;;
22628;SDS011;11481;53.694;9.910;2022-07-19T06:03:34;7.18;;;3.55;;
22628;SDS011;11481;53.694;9.910;2022-07-19T06:06:00;8.65;;;3.78;;
22628;SDS011;11481;53.694;9.910;2022-07-19T06:08:27;12.40;;;3.92;;
22628;SDS011;11481;53.694;9.910;2022-07-19T06:10:54;8.43;;;3.78;;
22628;SDS011;11481;53.694;9.910;2022-07-19T06:13:21;8.32;;;3.47;;
22628;SDS011;11481;53.694;9.910;2022-07-19T06:15:48;7.32;;;3.60;;
22628;SDS011;11481;53.694;9.910;2022-07-19T06:18:16;7.75;;;3.85;;
22628;SDS011;11481;53.694;9.910;2022-07-19T06:20:46;8.05;;;3.22;;
22628;SDS011;11481;53.694;9.910;2022-07-19T06:23:13;7.95;;;3.38;;
22628;SDS011;11481;53.694;9.910;2022-07-19T06:25:45;8.18;;;3.58;;
22628;SDS011;11481;53.694;9.910;2022-07-19T06:28:12;8.85;;;3.72;;
22628;SDS011;11481;53.694;9.910;2022-07-19T06:30:38;7.03;;;3.53;;
22628;SDS011;11481;53.694;9.910;2022-07-19T06:33:05;8.57;;;3.60;;
22628;SDS011;11481;53.694;9.910;2022-07-19T06:35:32;9.25;;;3.67;;
22628;SDS011;11481;53.694;9.910;2022-07-19T06:37:58;8.38;;;3.25;;
22628;SDS011;11481;53.694;9.910;2022-07-19T06:40:25;8.13;;;3.83;;
22628;SDS011;11481;53.694;9.910;2022-07-19T06:42:52;8.23;;;3.17;;
22628;SDS011;11481;53.694;9.910;2022-07-19T06:45:18;8.45;;;3.45;;
22628;SDS011;11481;53.694;9.910;2022-07-19T06:47:45;7.97;;;3.40;;
22628;SDS011;11481;53.694;9.910;2022-07-19T06:50:12;6.28;;;3.13;;
22628;SDS011;11481;53.694;9.910;2022-07-19T06:52:58;7.43;;;3.08;;
22628;SDS011;11481;53.694;9.910;2022-07-19T06:55:25;6.00;;;2.78;;
22628;SDS011;11481;53.694;9.910;2022-07-19T06:57:52;5.45;;;2.38;;
22628;SDS011;11481;53.694;9.910;2022-07-19T07:00:19;8.05;;;2.95;;
22628;SDS011;11481;53.694;9.910;2022-07-19T07:02:46;7.63;;;2.95;;
22628;SDS011;11481;53.694;9.910;2022-07-19T07:05:12;7.43;;;3.20;;
22628;SDS011;11481;53.694;9.910;2022-07-19T07:07:39;8.30;;;3.35;;
22628;SDS011;11481;53.694;9.910;2022-07-19T07:10:07;7.43;;;3.33;;
22628;SDS011;11481;53.694;9.910;2022-07-19T07:12:36;7.13;;;3.47;;
22628;SDS011;11481;53.694;9.910;2022-07-19T07:15:03;6.22;;;2.80;;
22628;SDS011;11481;53.694;9.910;2022-07-19T07:17:31;6.30;;;2.75;;
22628;SDS011;11481;53.694;9.910;2022-07-19T07:19:58;6.10;;;2.92;;
22628;SDS011;11481;53.694;9.910;2022-07-19T07:22:25;8.27;;;3.10;;
22628;SDS011;11481;53.694;9.910;2022-07-19T07:24:53;7.47;;;3.28;;
22628;SDS011;11481;53.694;9.910;2022-07-19T07:27:20;6.78;;;2.88;;
22628;SDS011;11481;53.694;9.910;2022-07-19T07:29:49;8.48;;;2.92;;
22628;SDS011;11481;53.694;9.910;2022-07-19T07:32:16;6.25;;;2.88;;
22628;SDS011;11481;53.694;9.910;2022-07-19T07:34:44;5.18;;;2.63;;
22628;SDS011;11481;53.694;9.910;2022-07-19T07:37:11;8.05;;;3.05;;
22628;SDS011;11481;53.694;9.910;2022-07-19T07:39:38;5.05;;;2.95;;
22628;SDS011;11481;53.694;9.910;2022-07-19T07:42:05;5.72;;;2.95;;
22628;SDS011;11481;53.694;9.910;2022-07-19T07:44:38;5.85;;;2.88;;
22628;SDS011;11481;53.694;9.910;2022-07-19T07:47:05;7.60;;;3.40;;
22628;SDS011;11481;53.694;9.910;2022-07-19T07:49:34;4.95;;;2.38;;
22628;SDS011;11481;53.694;9.910;2022-07-19T07:52:02;5.80;;;3.20;;
22628;SDS011;11481;53.694;9.910;2022-07-19T07:54:29;8.35;;;3.28;;
22628;SDS011;11481;53.694;9.910;2022-07-19T07:56:56;5.63;;;2.63;;
22628;SDS011;11481;53.694;9.910;2022-07-19T07:59:23;6.72;;;3.58;;
22628;SDS011;11481;53.694;9.910;2022-07-19T08:01:49;5.65;;;2.70;;
22628;SDS011;11481;53.694;9.910;2022-07-19T08:04:24;5.80;;;2.28;;
22628;SDS011;11481;53.694;9.910;2022-07-19T08:06:50;5.53;;;2.75;;
22628;SDS011;11481;53.694;9.910;2022-07-19T08:09:17;6.97;;;2.63;;
22628;SDS011;11481;53.694;9.910;2022-07-19T08:11:44;5.57;;;2.72;;
22628;SDS011;11481;53.694;9.910;2022-07-19T08:14:11;5.63;;;2.75;;
22628;SDS011;11481;53.694;9.910;2022-07-19T08:16:37;7.25;;;3.00;;
22628;SDS011;11481;53.694;9.910;2022-07-19T08:19:04;6.10;;;2.88;;
22628;SDS011;11481;53.694;9.910;2022-07-19T08:21:31;8.90;;;2.75;;
22628;SDS011;11481;53.694;9.910;2022-07-19T08:23:59;6.70;;;2.65;;
22628;SDS011;11481;53.694;9.910;2022-07-19T08:26:25;6.47;;;3.00;;
22628;SDS011;11481;53.694;9.910;2022-07-19T08:28:52;5.57;;;2.30;;
22628;SDS011;11481;53.694;9.910;2022-07-19T08:31:18;5.35;;;2.67;;
22628;SDS011;11481;53.694;9.910;2022-07-19T08:33:45;5.75;;;3.00;;
22628;SDS011;11481;53.694;9.910;2022-07-19T08:36:12;5.13;;;2.55;;
22628;SDS011;11481;53.694;9.910;2022-07-19T08:38:39;5.15;;;2.50;;
22628;SDS011;11481;53.694;9.910;2022-07-19T08:41:06;6.00;;;2.63;;
22628;SDS011;11481;53.694;9.910;2022-07-19T08:43:33;6.43;;;2.70;;
22628;SDS011;11481;53.694;9.910;2022-07-19T08:46:01;6.75;;;2.53;;
22628;SDS011;11481;53.694;9.910;2022-07-19T08:48:32;4.47;;;2.40;;
22628;SDS011;11481;53.694;9.910;2022-07-19T08:51:11;6.65;;;2.40;;
22628;SDS011;11481;53.694;9.910;2022-07-19T08:53:39;4.82;;;2.22;;
22628;SDS011;11481;53.694;9.910;2022-07-19T08:56:07;6.05;;;3.08;;
22628;SDS011;11481;53.694;9.910;2022-07-19T08:58:54;4.72;;;2.50;;
22628;SDS011;11481;53.694;9.910;2022-07-19T09:01:20;4.13;;;2.17;;
22628;SDS011;11481;53.694;9.910;2022-07-19T09:06:41;7.57;;;2.47;;
22628;SDS011;11481;53.694;9.910;2022-07-19T09:09:09;5.60;;;2.65;;
22628;SDS011;11481;53.694;9.910;2022-07-19T09:11:38;4.85;;;2.15;;
22628;SDS011;11481;53.694;9.910;2022-07-19T09:14:09;5.72;;;2.17;;
22628;SDS011;11481;53.694;9.910;2022-07-19T09:16:50;5.82;;;2.67;;
22628;SDS011;11481;53.694;9.910;2022-07-19T09:19:32;5.95;;;2.20;;
22628;SDS011;11481;53.694;9.910;2022-07-19T09:22:07;4.93;;;2.30;;
22628;SDS011;11481;53.694;9.910;2022-07-19T09:24:35;4.13;;;2.33;;
22628;SDS011;11481;53.694;9.910;2022-07-19T09:27:21;6.97;;;2.70;;
22628;SDS011;11481;53.694;9.910;2022-07-19T09:29:52;4.82;;;2.38;;
22628;SDS011;11481;53.694;9.910;2022-07-19T09:32:21;3.80;;;1.85;;
22628;SDS011;11481;53.694;9.910;2022-07-19T09:35:00;4.13;;;2.22;;
22628;SDS011;11481;53.694;9.910;2022-07-19T09:37:29;4.38;;;2.30;;
22628;SDS011;11481;53.694;9.910;2022-07-19T09:40:02;7.88;;;2.67;;
22628;SDS011;11481;53.694;9.910;2022-07-19T09:42:38;8.98;;;2.95;;
22628;SDS011;11481;53.694;9.910;2022-07-19T09:45:10;4.75;;;2.38;;
22628;SDS011;11481;53.694;9.910;2022-07-19T09:47:42;6.47;;;2.17;;
22628;SDS011;11481;53.694;9.910;2022-07-19T09:50:20;4.35;;;2.50;;
22628;SDS011;11481;53.694;9.910;2022-07-19T09:52:48;6.68;;;2.35;;
22628;SDS011;11481;53.694;9.910;2022-07-19T09:55:19;4.47;;;2.35;;
22628;SDS011;11481;53.694;9.910;2022-07-19T09:57:47;5.57;;;2.40;;
22628;SDS011;11481;53.694;9.910;2022-07-19T10:00:17;4.55;;;2.25;;
22628;SDS011;11481;53.694;9.910;2022-07-19T10:05:24;4.65;;;2.30;;
22628;SDS011;11481;53.694;9.910;2022-07-19T10:07:52;7.72;;;2.53;;
22628;SDS011;11481;53.694;9.910;2022-07-19T10:10:20;5.60;;;2.28;;
22628;SDS011;11481;53.694;9.910;2022-07-19T10:12:48;3.67;;;2.00;;
22628;SDS011;11481;53.694;9.910;2022-07-19T10:15:16;3.83;;;1.90;;
22628;SDS011;11481;53.694;9.910;2022-07-19T10:20:18;6.70;;;2.22;;
22628;SDS011;11481;53.694;9.910;2022-07-19T10:22:47;4.55;;;2.33;;
22628;SDS011;11481;53.694;9.910;2022-07-19T10:25:14;6.05;;;2.42;;
22628;SDS011;11481;53.694;9.910;2022-07-19T10:27:42;31.20;;;2.65;;
22628;SDS011;11481;53.694;9.910;2022-07-19T10:32:41;5.55;;;2.20;;
22628;SDS011;11481;53.694;9.910;2022-07-19T10:35:19;4.32;;;2.25;;
22628;SDS011;11481;53.694;9.910;2022-07-19T10:43:12;4.60;;;1.85;;
22628;SDS011;11481;53.694;9.910;2022-07-19T10:45:44;4.78;;;1.95;;
22628;SDS011;11481;53.694;9.910;2022-07-19T10:48:36;4.25;;;2.08;;
22628;SDS011;11481;53.694;9.910;2022-07-19T10:51:32;6.25;;;2.80;;
22628;SDS011;11481;53.694;9.910;2022-07-19T10:54:01;3.65;;;2.10;;
22628;SDS011;11481;53.694;9.910;2022-07-19T10:56:36;6.03;;;2.17;;
22628;SDS011;11481;53.694;9.910;2022-07-19T10:59:30;4.70;;;2.30;;
22628;SDS011;11481;53.694;9.910;2022-07-19T11:01:58;4.32;;;1.95;;
22628;SDS011;11481;53.694;9.910;2022-07-19T11:04:49;3.10;;;1.45;;
22628;SDS011;11481;53.694;9.910;2022-07-19T11:07:17;3.10;;;1.75;;
22628;SDS011;11481;53.694;9.910;2022-07-19T11:09:47;3.22;;;1.67;;
22628;SDS011;11481;53.694;9.910;2022-07-19T11:12:19;4.15;;;1.85;;
22628;SDS011;11481;53.694;9.910;2022-07-19T11:14:48;3.53;;;1.75;;
22628;SDS011;11481;53.694;9.910;2022-07-19T11:17:35;6.00;;;1.83;;
22628;SDS011;11481;53.694;9.910;2022-07-19T11:20:11;6.70;;;2.03;;
22628;SDS011;11481;53.694;9.910;2022-07-19T11:22:43;4.38;;;1.98;;
22628;SDS011;11481;53.694;9.910;2022-07-19T11:25:12;4.32;;;2.00;;
22628;SDS011;11481;53.694;9.910;2022-07-19T11:27:40;4.05;;;1.88;;
22628;SDS011;11481;53.694;9.910;2022-07-19T11:30:09;3.20;;;1.70;;
22628;SDS011;11481;53.694;9.910;2022-07-19T11:32:37;2.88;;;1.60;;
22628;SDS011;11481;53.694;9.910;2022-07-19T11:35:05;2.85;;;1.48;;
22628;SDS011;11481;53.694;9.910;2022-07-19T11:37:34;3.38;;;1.60;;
22628;SDS011;11481;53.694;9.910;2022-07-19T11:40:05;3.38;;;1.25;;
22628;SDS011;11481;53.694;9.910;2022-07-19T11:42:51;5.82;;;1.80;;
22628;SDS011;11481;53.694;9.910;2022-07-19T11:45:42;4.70;;;1.10;;
22628;SDS011;11481;53.694;9.910;2022-07-19T11:48:25;2.08;;;1.33;;
22628;SDS011;11481;53.694;9.910;2022-07-19T11:51:06;4.22;;;1.45;;
22628;SDS011;11481;53.694;9.910;2022-07-19T11:53:37;3.70;;;1.70;;
22628;SDS011;11481;53.694;9.910;2022-07-19T11:56:06;4.70;;;1.40;;
22628;SDS011;11481;53.694;9.910;2022-07-19T11:58:43;3.63;;;1.73;;
22628;SDS011;11481;53.694;9.910;2022-07-19T12:01:10;4.53;;;1.48;;
22628;SDS011;11481;53.694;9.910;2022-07-19T12:03:37;3.90;;;1.63;;
22628;SDS011;11481;53.694;9.910;2022-07-19T12:06:05;3.42;;;1.40;;
22628;SDS011;11481;53.694;9.910;2022-07-19T12:08:38;4.30;;;1.58;;
22628;SDS011;11481;53.694;9.910;2022-07-19T12:13:45;2.92;;;1.30;;
22628;SDS011;11481;53.694;9.910;2022-07-19T12:16:15;3.17;;;1.20;;
22628;SDS011;11481;53.694;9.910;2022-07-19T12:18:52;2.75;;;1.38;;
22628;SDS011;11481;53.694;9.910;2022-07-19T12:29:35;2.75;;;1.35;;
22628;SDS011;11481;53.694;9.910;2022-07-19T12:32:14;2.78;;;1.58;;
22628;SDS011;11481;53.694;9.910;2022-07-19T12:34:46;3.45;;;1.55;;
22628;SDS011;11481;53.694;9.910;2022-07-19T12:39:59;2.85;;;1.40;;
22628;SDS011;11481;53.694;9.910;2022-07-19T12:45:05;3.03;;;1.50;;
22628;SDS011;11481;53.694;9.910;2022-07-19T12:47:33;2.40;;;1.38;;
22628;SDS011;11481;53.694;9.910;2022-07-19T12:50:03;2.83;;;1.20;;
22628;SDS011;11481;53.694;9.910;2022-07-19T12:52:37;4.68;;;1.40;;
22628;SDS011;11481;53.694;9.910;2022-07-19T12:55:04;3.90;;;1.58;;
22628;SDS011;11481;53.694;9.910;2022-07-19T12:57:37;4.80;;;1.55;;
22628;SDS011;11481;53.694;9.910;2022-07-19T13:00:04;2.95;;;1.15;;
22628;SDS011;11481;53.694;9.910;2022-07-19T13:02:31;2.72;;;1.13;;
22628;SDS011;11481;53.694;9.910;2022-07-19T13:04:57;4.47;;;1.25;;
22628;SDS011;11481;53.694;9.910;2022-07-19T13:07:24;2.80;;;1.40;;
22628;SDS011;11481;53.694;9.910;2022-07-19T13:09:51;4.05;;;1.42;;
22628;SDS011;11481;53.694;9.910;2022-07-19T13:12:17;3.75;;;1.20;;
22628;SDS011;11481;53.694;9.910;2022-07-19T13:14:44;4.57;;;1.80;;
22628;SDS011;11481;53.694;9.910;2022-07-19T13:17:11;5.78;;;1.70;;
22628;SDS011;11481;53.694;9.910;2022-07-19T13:19:38;3.70;;;1.75;;
22628;SDS011;11481;53.694;9.910;2022-07-19T13:22:05;3.13;;;1.73;;
22628;SDS011;11481;53.694;9.910;2022-07-19T13:24:33;3.35;;;1.63;;
22628;SDS011;11481;53.694;9.910;2022-07-19T13:27:19;3.30;;;1.58;;
22628;SDS011;11481;53.694;9.910;2022-07-19T13:29:47;2.95;;;1.42;;
22628;SDS011;11481;53.694;9.910;2022-07-19T13:32:14;3.35;;;1.35;;
22628;SDS011;11481;53.694;9.910;2022-07-19T13:34:41;2.47;;;1.40;;
22628;SDS011;11481;53.694;9.910;2022-07-19T13:37:08;4.80;;;1.67;;
22628;SDS011;11481;53.694;9.910;2022-07-19T13:39:34;3.08;;;1.75;;
22628;SDS011;11481;53.694;9.910;2022-07-19T13:42:01;5.68;;;1.88;;
22628;SDS011;11481;53.694;9.910;2022-07-19T13:44:29;2.72;;;1.40;;
22628;SDS011;11481;53.694;9.910;2022-07-19T13:46:55;3.58;;;1.88;;
22628;SDS011;11481;53.694;9.910;2022-07-19T13:49:23;5.43;;;1.65;;
22628;SDS011;11481;53.694;9.910;2022-07-19T13:51:50;2.10;;;1.38;;
22628;SDS011;11481;53.694;9.910;2022-07-19T13:54:17;2.22;;;1.33;;
22628;SDS011;11481;53.694;9.910;2022-07-19T13:56:45;7.55;;;1.88;;
22628;SDS011;11481;53.694;9.910;2022-07-19T13:59:12;4.03;;;1.80;;
22628;SDS011;11481;53.694;9.910;2022-07-19T14:01:39;6.85;;;1.70;;
22628;SDS011;11481;53.694;9.910;2022-07-19T14:04:12;3.97;;;1.70;;
22628;SDS011;11481;53.694;9.910;2022-07-19T14:06:48;2.60;;;1.63;;
22628;SDS011;11481;53.694;9.910;2022-07-19T14:09:15;4.15;;;1.50;;
22628;SDS011;11481;53.694;9.910;2022-07-19T14:11:42;2.80;;;1.52;;
22628;SDS011;11481;53.694;9.910;2022-07-19T14:14:11;2.40;;;1.42;;
22628;SDS011;11481;53.694;9.910;2022-07-19T14:16:38;3.45;;;1.95;;
22628;SDS011;11481;53.694;9.910;2022-07-19T14:19:06;3.00;;;1.48;;
22628;SDS011;11481;53.694;9.910;2022-07-19T14:21:32;1.92;;;1.20;;
22628;SDS011;11481;53.694;9.910;2022-07-19T14:24:00;4.28;;;1.33;;
22628;SDS011;11481;53.694;9.910;2022-07-19T14:26:28;4.70;;;1.67;;
22628;SDS011;11481;53.694;9.910;2022-07-19T14:28:55;2.75;;;1.77;;
22628;SDS011;11481;53.694;9.910;2022-07-19T14:31:22;3.47;;;1.60;;
22628;SDS011;11481;53.694;9.910;2022-07-19T14:33:49;2.88;;;1.65;;
22628;SDS011;11481;53.694;9.910;2022-07-19T14:36:35;3.90;;;1.60;;
22628;SDS011;11481;53.694;9.910;2022-07-19T14:39:02;4.40;;;1.70;;
22628;SDS011;11481;53.694;9.910;2022-07-19T14:41:30;5.55;;;1.77;;
22628;SDS011;11481;53.694;9.910;2022-07-19T14:43:57;6.68;;;1.75;;
22628;SDS011;11481;53.694;9.910;2022-07-19T14:46:24;5.65;;;1.92;;
22628;SDS011;11481;53.694;9.910;2022-07-19T14:48:51;4.22;;;2.00;;
22628;SDS011;11481;53.694;9.910;2022-07-19T14:51:18;4.65;;;1.73;;
22628;SDS011;11481;53.694;9.910;2022-07-19T14:53:44;3.13;;;1.70;;
22628;SDS011;11481;53.694;9.910;2022-07-19T14:56:11;3.65;;;1.50;;
22628;SDS011;11481;53.694;9.910;2022-07-19T14:58:38;3.75;;;1.58;;
22628;SDS011;11481;53.694;9.910;2022-07-19T15:01:05;3.50;;;1.80;;
22628;SDS011;11481;53.694;9.910;2022-07-19T15:03:31;5.40;;;1.77;;
22628;SDS011;11481;53.694;9.910;2022-07-19T15:05:59;5.13;;;1.70;;
22628;SDS011;11481;53.694;9.910;2022-07-19T15:08:26;3.20;;;1.58;;
22628;SDS011;11481;53.694;9.910;2022-07-19T15:10:53;3.97;;;1.85;;
22628;SDS011;11481;53.694;9.910;2022-07-19T15:13:20;4.30;;;1.77;;
22628;SDS011;11481;53.694;9.910;2022-07-19T15:15:47;2.97;;;1.60;;
22628;SDS011;11481;53.694;9.910;2022-07-19T15:18:13;2.80;;;1.50;;
22628;SDS011;11481;53.694;9.910;2022-07-19T15:20:42;4.13;;;1.42;;
22628;SDS011;11481;53.694;9.910;2022-07-19T15:23:09;3.63;;;1.73;;
22628;SDS011;11481;53.694;9.910;2022-07-19T15:25:37;6.00;;;1.80;;
22628;SDS011;11481;53.694;9.910;2022-07-19T15:28:03;6.78;;;1.60;;
22628;SDS011;11481;53.694;9.910;2022-07-19T15:30:30;2.72;;;1.70;;